Terminal Aerodrome Forecast
Issued by NWS

Current Version | Previous Version | Graphics & Text | Print | Product List | Glossary On
Versions: 1 2 3 4 5 6 7 8 9 10 11 12 13 14 15 16 17 18 19 20 21 22 23 24 25
000
FTUS41 KILN 202300
TAFLCK
TAF
KLCK 202340Z 2100/2124 23005KT P6SM VCSH SCT012 BKN035
     FM210600 30005KT P6SM VCSH BKN012 OVC035
     FM211500 31010G18KT P6SM VCSH OVC025
     FM212200 32010KT P6SM OVC018=

USA.gov is the U.S. government's official web portal to all federal, state and local government web resources and services.